createdAt,value
2018-09-11T00:00:14.220Z,15.94
2018-09-11T00:01:14.188Z,15.94
2018-09-11T00:02:14.187Z,15.94
2018-09-11T00:03:14.210Z,15.84
2018-09-11T00:04:14.200Z,15.84
2018-09-11T00:05:14.235Z,15.82
2018-09-11T00:06:14.192Z,15.70
2018-09-11T00:07:14.197Z,15.72
2018-09-11T00:08:14.195Z,15.79
2018-09-11T00:09:14.197Z,15.70
2018-09-11T00:10:14.209Z,15.74
2018-09-11T00:11:14.201Z,15.72
2018-09-11T00:12:14.213Z,15.70
2018-09-11T00:13:14.210Z,15.59
2018-09-11T00:14:14.209Z,15.59
2018-09-11T00:15:14.236Z,15.57
2018-09-11T00:16:14.209Z,15.51
2018-09-11T00:17:14.216Z,15.51
2018-09-11T00:18:14.208Z,15.51
2018-09-11T00:19:14.214Z,15.36
2018-09-11T00:20:14.229Z,15.36
2018-09-11T00:21:14.209Z,15.33
2018-09-11T00:22:14.232Z,15.20
2018-09-11T00:23:14.217Z,15.21
2018-09-11T00:24:14.215Z,15.17
2018-09-11T00:25:14.216Z,15.01
2018-09-11T00:26:14.224Z,15.02
2018-09-11T00:27:14.246Z,15.01
2018-09-11T00:28:14.224Z,14.98
2018-09-11T00:29:14.224Z,14.94
2018-09-11T00:30:14.227Z,14.93
2018-09-11T00:31:14.227Z,14.94
2018-09-11T00:32:14.223Z,14.98
2018-09-11T00:33:14.238Z,14.94
2018-09-11T00:34:14.232Z,15.02
2018-09-11T00:35:14.226Z,14.93
2018-09-11T00:36:14.230Z,15.02
2018-09-11T00:37:14.232Z,15.11
2018-09-11T00:38:14.234Z,15.08
2018-09-11T00:39:14.237Z,15.03
2018-09-11T00:40:14.237Z,15.01
2018-09-11T00:41:14.257Z,15.06
2018-09-11T00:42:14.245Z,15.11
2018-09-11T00:43:14.265Z,15.09
2018-09-11T00:44:14.243Z,15.12
2018-09-11T00:45:14.262Z,15.03
2018-09-11T00:46:14.246Z,15.08
2018-09-11T00:47:14.246Z,15.09
2018-09-11T00:48:14.240Z,15.17
2018-09-11T00:49:14.267Z,15.20
2018-09-11T00:50:14.247Z,15.17
2018-09-11T00:51:14.245Z,15.21
2018-09-11T00:52:14.246Z,15.12
2018-09-11T00:53:14.246Z,15.15
2018-09-11T00:54:14.247Z,15.13
2018-09-11T00:55:14.248Z,15.05
2018-09-11T00:56:14.249Z,14.98
2018-09-11T00:57:14.246Z,15.02
2018-09-11T00:58:14.252Z,15.08
2018-09-11T00:59:14.255Z,15.03
2018-09-11T01:00:14.272Z,14.95
2018-09-11T01:01:14.257Z,14.90
2018-09-11T01:02:14.255Z,14.94
2018-09-11T01:03:14.280Z,14.99
2018-09-11T01:04:14.302Z,14.81
2018-09-11T01:05:14.259Z,14.87
2018-09-11T01:06:14.263Z,14.88
2018-09-11T01:07:14.286Z,14.86
2018-09-11T01:08:14.253Z,14.81
2018-09-11T01:09:14.259Z,14.81
2018-09-11T01:10:14.340Z,14.71
2018-09-11T01:11:14.265Z,14.83
2018-09-11T01:12:14.289Z,14.80
2018-09-11T01:13:14.265Z,14.72
2018-09-11T01:14:14.258Z,14.83
2018-09-11T01:15:14.267Z,14.81
2018-09-11T01:16:14.277Z,14.60
2018-09-11T01:17:14.273Z,14.67
2018-09-11T01:18:14.263Z,14.69
2018-09-11T01:19:14.288Z,14.64
2018-09-11T01:20:14.292Z,14.69
2018-09-11T01:21:14.301Z,14.61
2018-09-11T01:22:14.345Z,14.65
2018-09-11T01:23:14.295Z,14.57
2018-09-11T01:24:14.314Z,14.67
2018-09-11T01:25:14.268Z,14.61
2018-09-11T01:26:14.272Z,14.71
2018-09-11T01:27:14.298Z,14.64
2018-09-11T01:28:14.270Z,14.65
2018-09-11T01:29:14.289Z,14.68
2018-09-11T01:30:14.273Z,14.68
2018-09-11T01:31:14.306Z,14.72
2018-09-11T01:32:14.284Z,14.61
2018-09-11T01:33:14.342Z,14.71
2018-09-11T01:34:14.284Z,14.65
2018-09-11T01:35:14.320Z,14.68
2018-09-11T01:36:14.319Z,14.61
2018-09-11T01:37:14.301Z,14.60
2018-09-11T01:38:16.220Z,14.61
2018-09-11T01:39:14.278Z,14.64
2018-09-11T01:40:16.254Z,14.57
2018-09-11T01:41:14.308Z,14.54
2018-09-11T01:42:14.281Z,14.56
2018-09-11T01:43:15.380Z,14.54
2018-09-11T01:44:14.286Z,14.56
2018-09-11T01:45:14.302Z,14.43
2018-09-11T01:46:14.280Z,14.50
2018-09-11T01:47:14.321Z,14.43
2018-09-11T01:48:14.313Z,14.42
2018-09-11T01:49:14.285Z,14.56
2018-09-11T01:50:14.313Z,14.49
2018-09-11T01:51:16.203Z,14.50
2018-09-11T01:52:14.291Z,14.47
2018-09-11T01:53:16.218Z,14.47
2018-09-11T01:54:16.199Z,14.42
2018-09-11T01:55:14.285Z,14.44
2018-09-11T01:56:14.292Z,14.49
2018-09-11T01:57:14.296Z,14.46
2018-09-11T01:58:14.299Z,14.44
2018-09-11T01:59:14.284Z,14.46
2018-09-11T02:00:14.378Z,14.47
2018-09-11T02:01:14.290Z,14.44
2018-09-11T02:02:14.288Z,14.46
2018-09-11T02:03:14.299Z,14.46
2018-09-11T02:04:14.287Z,14.46
2018-09-11T02:05:14.293Z,14.50
2018-09-11T02:06:14.296Z,14.56
2018-09-11T02:07:14.327Z,14.54
2018-09-11T02:08:14.327Z,14.54
2018-09-11T02:09:14.306Z,14.56
2018-09-11T02:10:14.290Z,14.53
2018-09-11T02:11:14.357Z,14.43
2018-09-11T02:12:14.297Z,14.53
2018-09-11T02:13:16.266Z,14.49
2018-09-11T02:14:14.309Z,14.46
2018-09-11T02:15:14.305Z,14.53
2018-09-11T02:16:14.304Z,14.49
2018-09-11T02:17:14.292Z,14.42
2018-09-11T02:18:14.313Z,14.44
2018-09-11T02:19:14.296Z,14.44
2018-09-11T02:20:14.324Z,14.47
2018-09-11T02:21:14.316Z,14.49
2018-09-11T02:22:14.333Z,14.49
2018-09-11T02:23:14.314Z,14.35
2018-09-11T02:24:14.297Z,14.37
2018-09-11T02:25:14.328Z,14.43
2018-09-11T02:26:14.292Z,14.31
2018-09-11T02:27:14.296Z,14.37
2018-09-11T02:28:14.366Z,14.39
2018-09-11T02:29:14.314Z,14.38
2018-09-11T02:30:14.299Z,14.32
2018-09-11T02:31:14.336Z,14.29
2018-09-11T02:32:14.296Z,14.34
2018-09-11T02:33:14.294Z,14.31
2018-09-11T02:34:14.299Z,14.42
2018-09-11T02:35:14.301Z,14.47
2018-09-11T02:36:14.342Z,14.46
2018-09-11T02:37:14.299Z,14.47
2018-09-11T02:38:14.300Z,14.44
2018-09-11T02:39:14.303Z,14.47
2018-09-11T02:40:14.306Z,14.52
2018-09-11T02:41:14.340Z,14.54
2018-09-11T02:42:14.302Z,14.53
2018-09-11T02:43:14.332Z,14.56
2018-09-11T02:44:14.335Z,14.53
2018-09-11T02:45:14.305Z,14.56
2018-09-11T02:46:14.304Z,14.54
2018-09-11T02:47:14.378Z,14.53
2018-09-11T02:48:14.304Z,14.57
2018-09-11T02:49:14.307Z,14.61
2018-09-11T02:50:14.304Z,14.65
2018-09-11T02:51:14.358Z,14.60
2018-09-11T02:52:14.315Z,14.60
2018-09-11T02:53:14.327Z,14.64
2018-09-11T02:54:14.302Z,14.62
2018-09-11T02:55:14.340Z,14.57
2018-09-11T02:56:14.372Z,14.69
2018-09-11T02:57:14.297Z,14.62
2018-09-11T02:58:14.358Z,14.61
2018-09-11T02:59:14.298Z,14.61
2018-09-11T03:00:14.339Z,14.74
2018-09-11T03:01:14.335Z,14.69
2018-09-11T03:02:14.307Z,14.78
2018-09-11T03:03:14.305Z,14.86
2018-09-11T03:04:14.316Z,14.90
2018-09-11T03:05:14.320Z,14.95
2018-09-11T03:06:14.342Z,15.05
2018-09-11T03:07:14.389Z,14.99
2018-09-11T03:08:14.315Z,15.06
2018-09-11T03:09:14.325Z,15.17
2018-09-11T03:10:14.348Z,15.24
2018-09-11T03:11:14.327Z,15.20
2018-09-11T03:12:14.368Z,15.12
2018-09-11T03:13:14.388Z,15.23
2018-09-11T03:14:14.345Z,15.23
2018-09-11T03:15:14.303Z,15.19
2018-09-11T03:16:14.366Z,15.19
2018-09-11T03:17:14.309Z,15.26
2018-09-11T03:18:14.304Z,15.21
2018-09-11T03:19:14.304Z,15.12
2018-09-11T03:20:14.357Z,15.21
2018-09-11T03:21:14.305Z,15.21
2018-09-11T03:22:14.351Z,15.23
2018-09-11T03:23:14.349Z,15.28
2018-09-11T03:24:14.333Z,15.20
2018-09-11T03:25:14.312Z,15.23
2018-09-11T03:26:14.329Z,15.35
2018-09-11T03:27:14.312Z,15.27
2018-09-11T03:28:14.313Z,15.36
2018-09-11T03:29:14.306Z,15.39
2018-09-11T03:30:14.310Z,15.42
2018-09-11T03:31:14.315Z,15.38
2018-09-11T03:32:14.336Z,15.43
2018-09-11T03:33:14.311Z,15.39
2018-09-11T03:34:14.314Z,15.49
2018-09-11T03:35:14.311Z,15.43
2018-09-11T03:36:14.319Z,15.49
2018-09-11T03:37:14.324Z,15.43
2018-09-11T03:38:14.322Z,15.45
2018-09-11T03:39:14.317Z,15.56
2018-09-11T03:40:14.323Z,15.54
2018-09-11T03:41:14.328Z,15.52
2018-09-11T03:42:14.327Z,15.52
2018-09-11T03:43:14.341Z,15.46
2018-09-11T03:44:14.350Z,15.45
2018-09-11T03:45:14.316Z,15.41
2018-09-11T03:46:14.325Z,15.39
2018-09-11T03:47:14.402Z,15.42
2018-09-11T03:48:14.318Z,15.39
2018-09-11T03:49:14.323Z,15.36
2018-09-11T03:50:14.323Z,15.41
2018-09-11T03:51:14.326Z,15.42
2018-09-11T03:52:14.319Z,15.48
2018-09-11T03:53:14.352Z,15.39
2018-09-11T03:54:14.321Z,15.36
2018-09-11T03:55:14.322Z,15.38
2018-09-11T03:56:14.334Z,15.30
2018-09-11T03:57:14.358Z,15.30
2018-09-11T03:58:14.326Z,15.24
2018-09-11T03:59:14.358Z,15.24
2018-09-11T04:00:14.326Z,15.26
2018-09-11T04:01:14.328Z,15.15
2018-09-11T04:02:14.330Z,15.13
2018-09-11T04:03:14.330Z,15.17
2018-09-11T04:04:14.330Z,15.20
2018-09-11T04:05:14.414Z,15.21
2018-09-11T04:06:14.370Z,15.21
2018-09-11T04:07:14.335Z,15.15
2018-09-11T04:08:14.346Z,15.13
2018-09-11T04:09:14.351Z,15.06
2018-09-11T04:10:14.338Z,15.09
2018-09-11T04:11:14.387Z,15.08
2018-09-11T04:12:14.344Z,15.02
2018-09-11T04:13:14.361Z,14.88
2018-09-11T04:14:14.355Z,14.93
2018-09-11T04:15:14.340Z,14.94
2018-09-11T04:16:22.495Z,14.87
2018-09-11T04:18:08.359Z,14.78
2018-09-11T04:19:08.208Z,14.74
2018-09-11T04:20:08.277Z,14.74
2018-09-11T04:21:15.434Z,14.81
2018-09-11T04:23:01.699Z,14.72
2018-09-11T04:24:01.614Z,14.54
2018-09-11T04:25:01.581Z,14.68
2018-09-11T04:26:08.767Z,14.62
2018-09-11T04:27:55.569Z,14.61
2018-09-11T04:28:54.598Z,14.69
2018-09-11T04:30:48.013Z,14.64
2018-09-11T04:31:48.081Z,14.68
2018-09-11T04:33:41.339Z,14.60
2018-09-11T04:34:41.213Z,14.74
2018-09-11T04:36:34.881Z,14.65
2018-09-11T04:37:34.524Z,14.61
2018-09-11T04:39:28.003Z,14.65
2018-09-11T04:40:27.966Z,14.68
2018-09-11T04:42:20.923Z,14.57
2018-09-11T04:43:20.785Z,14.61
2018-09-11T04:45:14.690Z,14.62
2018-09-11T04:46:14.752Z,14.64
2018-09-11T04:47:14.640Z,14.64
2018-09-11T04:48:14.685Z,14.60
2018-09-11T04:49:14.715Z,14.57
2018-09-11T04:50:14.647Z,14.65
2018-09-11T04:51:14.623Z,14.68
2018-09-11T04:52:14.630Z,14.61
2018-09-11T04:53:14.632Z,14.69
2018-09-11T04:54:14.632Z,14.69
2018-09-11T04:55:14.628Z,14.71
2018-09-11T04:56:14.690Z,14.78
2018-09-11T04:57:14.633Z,14.67
2018-09-11T04:58:14.629Z,14.61
2018-09-11T04:59:14.632Z,14.65
2018-09-11T05:00:14.629Z,14.72
2018-09-11T05:01:14.625Z,14.99
2018-09-11T05:02:14.663Z,15.17
2018-09-11T05:03:14.630Z,15.24
2018-09-11T05:04:14.627Z,15.30
2018-09-11T05:05:14.628Z,15.21
2018-09-11T05:06:14.632Z,15.28
2018-09-11T05:07:14.635Z,15.24
2018-09-11T05:08:14.635Z,15.23
2018-09-11T05:09:14.659Z,15.31
2018-09-11T05:10:14.635Z,15.31
2018-09-11T05:11:14.644Z,15.35
2018-09-11T05:12:14.632Z,15.48
2018-09-11T05:13:14.635Z,15.52
2018-09-11T05:14:14.634Z,15.56
2018-09-11T05:15:14.633Z,15.59
2018-09-11T05:16:14.646Z,15.54
2018-09-11T05:17:14.644Z,15.61
2018-09-11T05:18:14.653Z,15.59
2018-09-11T05:19:14.643Z,15.57
2018-09-11T05:20:14.653Z,15.35
2018-09-11T05:21:14.667Z,15.42
2018-09-11T05:22:14.642Z,15.36
2018-09-11T05:23:14.638Z,15.30
2018-09-11T05:24:14.651Z,15.21
2018-09-11T05:25:14.649Z,15.26
2018-09-11T05:26:14.647Z,15.21
2018-09-11T05:27:14.648Z,15.33
2018-09-11T05:28:14.644Z,15.30
2018-09-11T05:29:14.640Z,15.42
2018-09-11T05:30:14.653Z,15.51
2018-09-11T05:31:14.644Z,15.57
2018-09-11T05:32:14.648Z,15.61
2018-09-11T05:33:14.652Z,15.70
2018-09-11T05:34:14.645Z,15.66
2018-09-11T05:35:14.653Z,15.75
2018-09-11T05:36:14.649Z,15.66
2018-09-11T05:37:14.646Z,15.75
2018-09-11T05:38:14.703Z,15.68
2018-09-11T05:39:14.652Z,15.70
2018-09-11T05:40:14.650Z,15.79
2018-09-11T05:41:14.657Z,15.74
2018-09-11T05:42:14.661Z,15.84
2018-09-11T05:43:14.680Z,15.97
2018-09-11T05:44:14.659Z,16.03
2018-09-11T05:45:14.680Z,16.12
2018-09-11T05:46:14.681Z,16.12
2018-09-11T05:47:14.665Z,16.27
2018-09-11T05:48:14.687Z,16.37
2018-09-11T05:49:14.658Z,16.42
2018-09-11T05:50:14.673Z,16.45
2018-09-11T05:51:14.666Z,16.55
2018-09-11T05:52:14.661Z,16.56
2018-09-11T05:53:14.669Z,16.67
2018-09-11T05:54:14.681Z,16.75
2018-09-11T05:55:14.683Z,16.83
2018-09-11T05:56:14.676Z,16.95
2018-09-11T05:57:14.668Z,16.95
2018-09-11T05:58:14.704Z,16.99
2018-09-11T05:59:14.702Z,17.11
2018-09-11T06:00:14.694Z,17.22
2018-09-11T06:01:14.685Z,17.22
2018-09-11T06:02:14.679Z,17.28
2018-09-11T06:03:14.700Z,17.40
2018-09-11T06:04:14.715Z,17.36
2018-09-11T06:05:14.693Z,17.33
2018-09-11T06:06:14.689Z,17.50
2018-09-11T06:07:14.723Z,17.57
2018-09-11T06:08:14.708Z,17.54
2018-09-11T06:09:14.688Z,17.54
2018-09-11T06:10:14.685Z,17.55
2018-09-11T06:11:14.689Z,17.64
2018-09-11T06:12:14.702Z,17.62
2018-09-11T06:13:14.688Z,17.70
2018-09-11T06:14:14.692Z,17.71
2018-09-11T06:15:14.697Z,17.85
2018-09-11T06:16:14.766Z,17.88
2018-09-11T06:17:14.770Z,17.81
2018-09-11T06:18:14.707Z,17.84
2018-09-11T06:19:14.701Z,17.92
2018-09-11T06:20:14.722Z,17.91
2018-09-11T06:21:14.707Z,17.92
2018-09-11T06:22:14.708Z,17.95
2018-09-11T06:23:14.707Z,17.97
2018-09-11T06:24:14.710Z,17.99
2018-09-11T06:25:14.715Z,18.03
2018-09-11T06:26:14.724Z,18.13
2018-09-11T06:27:14.720Z,18.07
2018-09-11T06:28:14.731Z,18.17
2018-09-11T06:29:14.867Z,18.18
2018-09-11T06:31:46.699Z,18.13
2018-09-11T06:32:46.449Z,18.34
2018-09-11T06:33:46.355Z,18.34
2018-09-11T06:34:46.400Z,18.47
2018-09-11T06:35:47.073Z,18.62
2018-09-11T06:36:46.691Z,18.82
2018-09-11T06:39:09.940Z,19.17
2018-09-11T06:40:07.952Z,19.11
2018-09-11T06:41:07.904Z,18.83
2018-09-11T06:42:07.973Z,18.64
2018-09-11T06:43:07.865Z,18.64
2018-09-11T06:44:07.854Z,18.64
2018-09-11T06:45:07.862Z,18.83
2018-09-11T06:46:07.854Z,18.76
2018-09-11T06:47:07.971Z,19.14
2018-09-11T06:48:07.900Z,19.31
2018-09-11T06:49:07.864Z,19.46
2018-09-11T06:50:07.883Z,19.73
2018-09-11T06:51:07.875Z,19.84
2018-09-11T06:52:07.873Z,19.76
2018-09-11T06:53:07.877Z,19.78
2018-09-11T06:54:07.882Z,20.25
2018-09-11T06:55:07.885Z,20.34
2018-09-11T06:56:07.919Z,20.25
2018-09-11T06:57:07.889Z,20.27
2018-09-11T06:58:07.890Z,20.10
2018-09-11T06:59:07.921Z,19.88
2018-09-11T07:00:07.904Z,19.86
2018-09-11T07:01:07.900Z,19.73
2018-09-11T07:02:08.849Z,19.73
2018-09-11T07:03:07.915Z,19.58
2018-09-11T07:04:07.918Z,19.43
2018-09-11T07:05:07.918Z,19.63
2018-09-11T07:06:07.924Z,19.66
2018-09-11T07:07:07.969Z,19.66
2018-09-11T07:08:07.959Z,19.79
2018-09-11T07:09:07.932Z,20.02
2018-09-11T07:10:07.985Z,20.25
2018-09-11T07:11:07.985Z,20.58
2018-09-11T07:12:07.943Z,21.02
2018-09-11T07:13:08.364Z,21.42
2018-09-11T07:15:31.045Z,21.11
2018-09-11T07:16:30.130Z,20.93
2018-09-11T07:17:29.424Z,20.76
2018-09-11T07:18:29.384Z,20.35
2018-09-11T07:19:29.669Z,20.35
2018-09-11T07:20:29.569Z,20.54
2018-09-11T07:21:29.454Z,20.53
2018-09-11T07:22:29.895Z,20.27
2018-09-11T07:23:29.402Z,20.38
2018-09-11T07:24:29.367Z,20.59
2018-09-11T07:25:29.473Z,20.54
2018-09-11T07:26:29.378Z,20.42
2018-09-11T07:27:30.380Z,20.08
2018-09-11T07:28:36.964Z,20.20
2018-09-11T07:30:23.324Z,20.81
2018-09-11T07:31:24.196Z,21.56
2018-09-11T07:35:11.172Z,22.71
2018-09-11T07:36:08.384Z,22.84
2018-09-11T07:37:54.624Z,22.82
2018-09-11T07:38:54.765Z,22.83
2018-09-11T07:40:47.798Z,22.96
2018-09-11T07:41:47.708Z,22.99
2018-09-11T07:43:41.422Z,22.38
2018-09-11T07:44:41.506Z,22.19
2018-09-11T07:46:34.461Z,21.99
2018-09-11T07:47:34.205Z,21.88
2018-09-11T07:49:27.919Z,21.66
2018-09-11T07:50:27.757Z,22.01
2018-09-11T07:52:21.714Z,22.53
2018-09-11T07:53:21.673Z,22.52
2018-09-11T07:54:21.730Z,22.86
2018-09-11T07:55:21.514Z,23.09
2018-09-11T07:56:21.475Z,22.93
2018-09-11T07:57:21.386Z,22.71
2018-09-11T07:58:21.402Z,22.31
2018-09-11T07:59:21.421Z,22.07
2018-09-11T08:00:21.409Z,22.16
2018-09-11T08:01:21.425Z,22.46
2018-09-11T08:02:21.430Z,22.13
2018-09-11T08:03:21.417Z,21.85
2018-09-11T08:04:21.429Z,21.97
2018-09-11T08:05:21.477Z,22.04
2018-09-11T08:06:21.454Z,21.94
2018-09-11T08:07:21.454Z,22.34
2018-09-11T08:08:21.449Z,22.39
2018-09-11T08:09:21.470Z,22.97
2018-09-11T08:10:21.445Z,23.08
2018-09-11T08:11:21.479Z,22.99
2018-09-11T08:12:21.467Z,22.96
2018-09-11T08:13:21.461Z,23.29
2018-09-11T08:14:21.491Z,22.74
2018-09-11T08:15:21.474Z,23.24
2018-09-11T08:16:21.528Z,23.86
2018-09-11T08:17:21.494Z,24.12
2018-09-11T08:18:21.539Z,23.98
2018-09-11T08:19:23.427Z,24.64
2018-09-11T08:20:21.513Z,24.47
2018-09-11T08:21:21.547Z,24.37
2018-09-11T08:22:21.525Z,24.39
2018-09-11T08:23:21.539Z,25.05
2018-09-11T08:24:21.540Z,25.09
2018-09-11T08:25:21.562Z,25.67
2018-09-11T08:26:21.603Z,25.57
2018-09-11T08:27:21.689Z,25.37
2018-09-11T08:28:23.509Z,25.38
2018-09-11T08:29:23.462Z,24.80
2018-09-11T08:30:21.593Z,24.59
2018-09-11T08:31:21.655Z,24.67
2018-09-11T08:32:21.637Z,24.98
2018-09-11T08:33:21.615Z,25.05
2018-09-11T08:34:21.633Z,24.91
2018-09-11T08:35:21.631Z,24.79
2018-09-11T08:36:21.669Z,24.68
2018-09-11T08:37:21.649Z,24.23
2018-09-11T08:38:21.660Z,24.04
2018-09-11T08:39:21.694Z,23.94
2018-09-11T08:40:21.677Z,24.01
2018-09-11T08:41:21.703Z,23.90
2018-09-11T08:42:21.691Z,23.42
2018-09-11T08:43:21.745Z,24.01
2018-09-11T08:44:21.716Z,23.97
2018-09-11T08:45:21.774Z,24.00
2018-09-11T08:46:22.805Z,23.40
2018-09-11T08:47:23.415Z,23.07
2018-09-11T08:48:23.407Z,23.49
2018-09-11T08:49:21.763Z,23.64
2018-09-11T08:50:21.792Z,24.07
2018-09-11T08:51:23.405Z,23.77
2018-09-11T08:52:21.807Z,23.79
2018-09-11T08:53:21.799Z,23.97
2018-09-11T08:54:21.809Z,23.98
2018-09-11T08:55:23.408Z,24.24
2018-09-11T08:56:21.859Z,24.52
2018-09-11T08:57:21.888Z,24.59
2018-09-11T08:58:23.487Z,24.90
2018-09-11T08:59:22.044Z,24.82
2018-09-11T09:00:35.327Z,24.77
2018-09-11T09:02:54.046Z,24.00
2018-09-11T09:04:01.061Z,23.80
2018-09-11T09:05:46.874Z,23.47
2018-09-11T09:06:46.851Z,23.58
2018-09-11T09:07:46.697Z,23.42
2018-09-11T09:08:46.621Z,23.38
2018-09-11T09:09:46.879Z,23.02
2018-09-11T09:10:46.541Z,23.20
2018-09-11T09:11:46.579Z,23.26
2018-09-11T09:12:46.533Z,23.11
2018-09-11T09:13:46.543Z,23.07
2018-09-11T09:14:46.585Z,23.31
2018-09-11T09:15:46.581Z,23.31
2018-09-11T09:16:46.585Z,23.62
2018-09-11T09:17:46.585Z,23.64
2018-09-11T09:18:46.602Z,23.72
2018-09-11T09:19:46.613Z,23.70
2018-09-11T09:20:46.679Z,23.68
2018-09-11T09:21:46.634Z,23.65
2018-09-11T09:22:46.974Z,23.61
2018-09-11T09:25:27.945Z,23.60
2018-09-11T09:26:27.421Z,23.67
2018-09-11T09:28:19.993Z,23.71
2018-09-11T09:29:21.464Z,23.76
2018-09-11T09:31:14.248Z,24.04
2018-09-11T09:32:13.606Z,24.02
2018-09-11T09:34:22.214Z,23.77
2018-09-11T09:35:06.472Z,23.68
2018-09-11T09:36:59.928Z,23.92
2018-09-11T09:37:59.450Z,24.19
2018-09-11T09:39:52.299Z,24.26
2018-09-11T09:40:52.388Z,24.45
2018-09-11T09:42:52.494Z,24.67
2018-09-11T09:43:46.241Z,24.57
2018-09-11T09:44:45.878Z,24.38
2018-09-11T09:45:49.628Z,24.45
2018-09-11T09:46:45.019Z,24.38
2018-09-11T09:56:05.355Z,24.77
2018-09-11T09:57:06.625Z,24.59
2018-09-11T09:58:05.861Z,24.41
2018-09-11T09:59:05.382Z,24.34
2018-09-11T10:01:59.104Z,24.24
2018-09-11T10:04:13.799Z,24.32
2018-09-11T10:05:22.341Z,24.47
2018-09-11T10:07:07.129Z,24.54
2018-09-11T10:08:06.973Z,24.68
2018-09-11T10:10:04.196Z,24.61
2018-09-11T10:11:01.396Z,24.68
2018-09-11T10:11:59.878Z,24.69
2018-09-11T10:13:05.438Z,24.56
2018-09-11T10:14:00.119Z,24.54
2018-09-11T10:14:59.818Z,24.59
2018-09-11T10:16:14.881Z,24.42
2018-09-11T10:17:55.976Z,24.35
2018-09-11T10:18:55.870Z,24.41
2018-09-11T10:23:41.289Z,24.27
2018-09-11T10:28:09.831Z,24.61
2018-09-11T10:29:09.677Z,24.71
2018-09-11T10:31:12.585Z,24.94
2018-09-11T10:32:03.274Z,25.02
2018-09-11T10:33:58.046Z,25.39
2018-09-11T10:39:26.874Z,25.27
2018-09-11T10:40:26.901Z,25.07
2018-09-11T10:42:25.387Z,25.31
2018-09-11T10:43:47.186Z,25.06
2018-09-11T10:45:23.012Z,24.82
2018-09-11T10:46:31.482Z,24.56
2018-09-11T10:49:15.545Z,24.69
2018-09-11T10:51:53.242Z,24.60
2018-09-11T10:52:56.593Z,24.92
2018-09-11T10:53:51.792Z,25.09
2018-09-11T10:54:51.674Z,25.20
2018-09-11T10:55:53.523Z,25.43
2018-09-11T10:57:03.938Z,25.67
2018-09-11T10:57:52.892Z,25.54
2018-09-11T10:58:51.866Z,25.35
2018-09-11T10:59:54.416Z,25.28
2018-09-11T11:04:14.005Z,25.20
2018-09-11T11:07:09.412Z,25.50
2018-09-11T11:10:21.870Z,25.49
2018-09-11T11:13:18.080Z,25.43
2018-09-11T11:14:28.952Z,25.64
2018-09-11T11:15:18.161Z,25.79
2018-09-11T11:16:21.049Z,25.86
2018-09-11T11:17:26.045Z,26.11
2018-09-11T11:19:41.995Z,26.69
2018-09-11T11:20:36.530Z,27.06
2018-09-11T11:21:46.669Z,27.32
2018-09-11T11:29:37.791Z,27.74
2018-09-11T11:29:38.358Z,27.62
2018-09-11T11:30:38.217Z,27.57
2018-09-11T11:31:38.481Z,27.48
2018-09-11T11:32:48.008Z,27.57
2018-09-11T11:33:38.466Z,27.23
2018-09-11T11:36:21.373Z,27.26
2018-09-11T11:37:20.458Z,27.28
2018-09-11T11:38:20.265Z,27.26
2018-09-11T11:39:20.235Z,27.31
2018-09-11T11:40:20.419Z,27.46
2018-09-11T11:41:20.234Z,27.32
2018-09-11T11:42:20.237Z,26.76
2018-09-11T11:43:20.217Z,26.72
2018-09-11T11:44:20.230Z,26.50
2018-09-11T11:45:20.382Z,26.64
2018-09-11T11:46:20.465Z,26.89
2018-09-11T11:47:21.244Z,26.80
2018-09-11T11:50:41.157Z,27.02
2018-09-11T11:50:46.068Z,27.13
2018-09-11T11:51:45.492Z,27.17
2018-09-11T11:53:11.042Z,27.06
2018-09-11T11:55:36.652Z,27.10
2018-09-11T11:55:44.941Z,27.01
2018-09-11T11:57:16.561Z,27.09
2018-09-11T11:59:45.586Z,26.81
2018-09-11T12:00:41.880Z,26.86
2018-09-11T12:01:41.419Z,26.81
2018-09-11T12:02:41.497Z,26.81
2018-09-11T12:03:41.328Z,26.86
2018-09-11T12:04:41.390Z,26.87
2018-09-11T12:05:41.358Z,26.96
2018-09-11T12:06:41.384Z,27.11
2018-09-11T12:07:50.467Z,27.23
2018-09-11T12:33:02.710Z,26.92
2018-09-11T12:33:08.669Z,27.05
2018-09-11T12:41:20.381Z,27.82
2018-09-11T13:00:29.629Z,27.57
2018-09-11T13:03:31.335Z,27.47
2018-09-11T13:06:15.863Z,27.38
2018-09-11T13:06:45.951Z,27.53
2018-09-11T13:07:46.011Z,27.59
2018-09-11T13:08:45.988Z,27.58
2018-09-11T13:09:45.728Z,27.64
2018-09-11T13:10:46.165Z,27.84
2018-09-11T13:11:45.732Z,27.80
2018-09-11T13:12:47.199Z,27.88
2018-09-11T13:15:15.972Z,27.89
2018-09-11T13:16:30.821Z,27.86
2018-09-11T13:18:19.270Z,27.88
2018-09-11T13:19:24.385Z,27.88
2018-09-11T13:22:56.083Z,28.10
2018-09-11T13:23:51.456Z,28.21
2018-09-11T13:24:53.415Z,28.11
2018-09-11T13:25:56.678Z,28.16
2018-09-11T13:29:22.383Z,27.95
2018-09-11T13:30:11.980Z,27.88
2018-09-11T13:31:02.580Z,27.77
2018-09-11T13:32:41.505Z,27.76
2018-09-11T13:33:03.582Z,27.80
2018-09-11T13:35:08.392Z,27.88
2018-09-11T13:35:14.868Z,28.06
2018-09-11T13:36:09.042Z,28.26
2018-09-11T13:37:08.986Z,28.46
2018-09-11T13:38:08.748Z,28.41
2018-09-11T13:39:10.460Z,28.48
2018-09-11T13:40:21.535Z,28.62
2018-09-11T13:43:23.133Z,28.40
2018-09-11T13:47:08.790Z,28.48
2018-09-11T13:51:52.846Z,28.60
2018-09-11T13:52:30.756Z,28.75
2018-09-11T13:53:50.160Z,28.75
2018-09-11T13:54:39.243Z,28.65
2018-09-11T14:04:24.837Z,28.06
2018-09-11T14:09:57.036Z,28.04
2018-09-11T14:12:14.704Z,27.98
2018-09-11T14:13:14.371Z,28.11
2018-09-11T14:14:14.207Z,28.09
2018-09-11T14:18:02.106Z,28.04
2018-09-11T14:18:56.611Z,27.95
2018-09-11T14:20:20.000Z,27.85
2018-09-11T14:21:59.276Z,27.92
2018-09-11T14:25:05.373Z,28.25
2018-09-11T14:26:14.217Z,28.21
2018-09-11T14:28:59.215Z,28.21
2018-09-11T14:32:36.187Z,28.17
2018-09-11T14:37:49.549Z,28.25
2018-09-11T14:38:49.989Z,28.11
2018-09-11T14:40:55.179Z,27.82
2018-09-11T14:41:51.193Z,27.85
2018-09-11T14:42:51.211Z,27.84
2018-09-11T14:43:51.116Z,27.88
2018-09-11T14:44:51.349Z,27.85
2018-09-11T14:45:51.936Z,27.82
2018-09-11T14:51:19.802Z,27.67
2018-09-11T14:52:19.151Z,27.67
2018-09-11T14:53:19.258Z,27.48
2018-09-11T14:54:19.121Z,27.54
2018-09-11T14:55:19.169Z,27.66
2018-09-11T14:56:19.136Z,27.67
2018-09-11T14:57:19.227Z,27.79
2018-09-11T14:58:19.153Z,27.76
2018-09-11T14:59:19.157Z,27.84
2018-09-11T15:00:19.237Z,27.82
2018-09-11T15:01:19.167Z,27.82
2018-09-11T15:02:19.172Z,27.91
2018-09-11T15:03:19.188Z,27.91
2018-09-11T15:04:19.299Z,27.91
2018-09-11T15:05:19.217Z,27.88
2018-09-11T15:06:19.226Z,27.86
2018-09-11T15:07:19.255Z,27.64
2018-09-11T15:08:19.261Z,27.54
2018-09-11T15:09:19.232Z,27.53
2018-09-11T15:10:19.229Z,27.41
2018-09-11T15:11:19.277Z,27.41
2018-09-11T15:12:19.239Z,27.43
2018-09-11T15:13:19.313Z,27.24
2018-09-11T15:14:19.307Z,27.33
2018-09-11T15:15:19.255Z,27.35
2018-09-11T15:16:19.284Z,27.41
2018-09-11T15:17:19.268Z,27.32
2018-09-11T15:18:19.275Z,27.42
2018-09-11T15:19:19.276Z,27.28
2018-09-11T15:20:19.289Z,27.19
2018-09-11T15:21:19.342Z,27.10
2018-09-11T15:22:19.305Z,27.14
2018-09-11T15:23:19.330Z,27.28
2018-09-11T15:24:19.369Z,27.31
2018-09-11T15:25:20.639Z,27.38
2018-09-11T15:26:19.330Z,27.39
2018-09-11T15:28:13.099Z,27.41
2018-09-11T15:29:12.984Z,27.38
2018-09-11T15:31:06.075Z,27.19
2018-09-11T15:32:05.825Z,27.14
2018-09-11T15:33:59.035Z,26.98
2018-09-11T15:34:58.825Z,26.96
2018-09-11T15:36:52.314Z,26.91
2018-09-11T15:37:51.612Z,26.76
2018-09-11T15:39:45.079Z,26.52
2018-09-11T15:40:46.850Z,26.43
2018-09-11T15:42:38.705Z,26.46
2018-09-11T15:43:38.419Z,26.47
2018-09-11T15:45:32.534Z,26.35
2018-09-11T15:46:32.372Z,26.20
2018-09-11T15:48:26.374Z,26.15
2018-09-11T15:49:27.281Z,26.11
2018-09-11T15:50:27.737Z,26.15
2018-09-11T15:51:28.771Z,26.21
2018-09-11T15:52:26.326Z,26.15
2018-09-11T15:53:27.611Z,26.12
2018-09-11T15:54:37.707Z,26.15
2018-09-11T15:55:28.858Z,26.18
2018-09-11T15:56:27.251Z,26.11
2018-09-11T15:57:26.160Z,25.97
2018-09-11T15:58:26.179Z,25.91
2018-09-11T15:59:26.269Z,25.89
2018-09-11T16:00:26.189Z,25.87
2018-09-11T16:01:28.304Z,25.80
2018-09-11T16:02:35.027Z,25.87
2018-09-11T16:03:26.382Z,25.82
2018-09-11T16:04:35.507Z,25.80
2018-09-11T16:06:22.559Z,25.75
2018-09-11T16:07:31.520Z,25.77
2018-09-11T16:09:19.757Z,25.74
2018-09-11T16:10:23.809Z,25.72